Time;durP1;ratioP1;P1;durP2;ratioP2;P2;SDS_P1;SDS_P2;PMS_P1;PMS_P2;Temp;Humidity;BMP_temperature;BMP_pressure;BME280_temperature;BME280_humidity;BME280_pressure;Samples;Min_cycle;Max_cycle;Signal;HPM_P1;HPM_P2
2022/01/24 00:01:31;;;;;;;;;;;;;;;1.34;100.00;103094.44;2569511;30;138240;-36
2022/01/24 00:04:02;;;;;;;;;;;;;;;1.28;100.00;103087.59;2568273;30;137163;-36
2022/01/24 00:06:32;;;;;;;;;;;;;;;1.22;100.00;103093.38;2568111;30;137381;-36
2022/01/24 00:09:00;;;;;;;;;;;;;;;1.13;100.00;103085.88;2567000;30;136877;-36
2022/01/24 00:11:42;;;;;;;;;;;;;;;1.11;100.00;103088.66;2568385;30;136658;-36
2022/01/24 00:14:50;;;;;;;;;;;;;;;1.00;100.00;103080.38;2568372;30;137204;-36
2022/01/24 00:17:13;;;;;;;;;;;;;;;0.91;100.00;103086.31;2567615;30;137448;-36
2022/01/24 00:27:59;;;;;;;;;;;;;;;0.92;100.00;103080.84;2567814;30;138553;-36
2022/01/24 00:30:27;;;;;;;;;;;;;;;0.89;100.00;103086.41;2568082;30;137020;-36
2022/01/24 00:32:55;;;;;;;;;;;;;;;0.88;100.00;103089.19;2567861;30;138164;-36
2022/01/24 00:35:23;;;;;;;;;;;;;;;0.84;100.00;103086.69;2568155;30;136953;-36
2022/01/24 00:37:51;;;;;;;;;;;;;;;0.83;100.00;103090.34;2566704;30;138743;-36
2022/01/24 00:40:18;;;;;;;;;;;;;;;0.79;100.00;103091.47;2568036;30;137382;-36
2022/01/24 00:42:54;;;;;;;;;;;;;;;0.85;100.00;103085.72;2568385;30;137533;-37
2022/01/24 00:45:38;;;;;;;;;;;;;;;0.84;100.00;103088.53;2568323;30;137532;-36
2022/01/24 00:48:25;;;;;;;;;;;;;;;0.81;100.00;103083.34;2567949;30;138515;-36
2022/01/24 00:56:11;;;;;;;;;;;;;;;0.82;100.00;103085.06;2568411;30;137119;-36
2022/01/24 00:58:39;;;;;;;;;;;;;;;0.77;100.00;103079.09;2568145;30;138378;-36
2022/01/24 01:01:08;;;;;;;;;;;;;;;0.75;100.00;103083.69;2566856;30;137898;-36
2022/01/24 01:03:36;;;;;;;;;;;;;;;0.74;100.00;103081.97;2567904;30;137984;-36
2022/01/24 01:06:08;;;;;;;;;;;;;;;0.82;100.00;103077.00;2568078;30;136987;-36
2022/01/24 01:19:43;;;;;;;;;;;;;;;1.12;100.00;103062.63;2568795;30;137916;-40
2022/01/24 01:22:11;;;;;;;;;;;;;;;1.24;100.00;103067.25;2568538;30;137043;-40
2022/01/24 01:24:46;;;;;;;;;;;;;;;1.36;100.00;103059.38;2567085;30;138447;-40
2022/01/24 01:27:22;;;;;;;;;;;;;;;1.45;100.00;103066.88;2568779;30;137077;-41
2022/01/24 01:30:02;;;;;;;;;;;;;;;1.51;100.00;103061.09;2564560;30;138103;-40
2022/01/24 01:35:38;;;;;;;;;;;;;;;1.67;100.00;103073.56;2569174;30;138191;-40
2022/01/24 01:54:49;;;;;;;;;;;;;;;2.06;100.00;103087.25;2567667;30;137161;-40
2022/01/24 01:57:19;;;;;;;;;;;;;;;2.17;100.00;103075.75;2568544;30;139342;-40
2022/01/24 01:59:47;;;;;;;;;;;;;;;2.20;100.00;103080.94;2567937;30;138231;-40
2022/01/24 02:02:15;;;;;;;;;;;;;;;2.16;100.00;103082.97;2566628;30;139627;-40
2022/01/24 02:04:43;;;;;;;;;;;;;;;2.26;100.00;103078.72;2567085;30;136785;-40
2022/01/24 02:07:12;;;;;;;;;;;;;;;2.26;100.00;103080.53;2568646;30;138222;-40
2022/01/24 02:09:45;;;;;;;;;;;;;;;2.29;100.00;103066.84;2569429;30;137266;-40
2022/01/24 02:12:13;;;;;;;;;;;;;;;2.27;100.00;103076.88;2568306;30;139371;-40
2022/01/24 02:14:49;;;;;;;;;;;;;;;2.25;100.00;103068.88;2568087;30;137127;-40
2022/01/24 02:17:29;;;;;;;;;;;;;;;2.27;100.00;103066.97;2569747;30;139167;-40
2022/01/24 02:20:14;;;;;;;;;;;;;;;2.24;100.00;103052.84;2567558;30;136807;-40
2022/01/24 02:22:50;;;;;;;;;;;;;;;2.23;100.00;103043.03;2567289;30;139390;-40
2022/01/24 02:25:27;;;;;;;;;;;;;;;2.38;100.00;103043.81;2568144;30;137105;-40
2022/01/24 02:27:58;;;;;;;;;;;;;;;2.37;100.00;103048.31;2568455;30;137442;-40
2022/01/24 02:30:49;;;;;;;;;;;;;;;2.43;100.00;103047.06;2568205;30;137230;-40
2022/01/24 02:33:14;;;;;;;;;;;;;;;2.52;100.00;103034.78;2568707;30;138481;-40
2022/01/24 02:35:43;;;;;;;;;;;;;;;2.62;100.00;103045.81;2568418;30;137153;-40
2022/01/24 02:39:08;;;;;;;;;;;;;;;2.55;99.93;103035.47;2568451;30;140262;-40
2022/01/24 02:49:30;;;;;;;;;;;;;;;2.66;99.87;103034.72;2568070;30;138215;-40
2022/01/24 02:52:09;;;;;;;;;;;;;;;2.63;100.00;103037.59;2568488;30;137082;-40
2022/01/24 02:54:38;;;;;;;;;;;;;;;2.56;100.00;103029.09;2565455;30;138250;-40
2022/01/24 02:57:06;;;;;;;;;;;;;;;2.59;100.00;103036.97;2568620;30;137037;-40
2022/01/24 02:59:35;;;;;;;;;;;;;;;2.59;100.00;103033.41;2568557;30;137250;-40
2022/01/24 03:02:03;;;;;;;;;;;;;;;2.60;100.00;103032.44;2565474;30;137047;-40
2022/01/24 03:04:31;;;;;;;;;;;;;;;2.67;100.00;103019.41;2568413;30;138162;-40
2022/01/24 03:06:59;;;;;;;;;;;;;;;2.67;100.00;103017.59;2568403;30;137095;-40
2022/01/24 03:09:26;;;;;;;;;;;;;;;2.69;100.00;103021.03;2567745;30;137859;-40
2022/01/24 03:14:24;;;;;;;;;;;;;;;2.70;100.00;103003.00;2568330;30;138299;-40
2022/01/24 03:16:52;;;;;;;;;;;;;;;2.70;100.00;103009.28;2568773;30;137144;-40
2022/01/24 03:19:20;;;;;;;;;;;;;;;2.82;100.00;103009.38;2568871;30;139132;-40
2022/01/24 03:21:48;;;;;;;;;;;;;;;2.92;100.00;103007.78;2567049;30;136997;-40
2022/01/24 03:24:16;;;;;;;;;;;;;;;2.88;99.90;103008.94;2565653;30;136689;-40
2022/01/24 03:26:44;;;;;;;;;;;;;;;2.83;100.00;103003.00;2566543;30;137423;-40
2022/01/24 03:29:12;;;;;;;;;;;;;;;2.83;100.00;103003.00;2566249;30;139182;-40
2022/01/24 03:31:40;;;;;;;;;;;;;;;2.81;100.00;103007.66;2567979;30;137008;-40
2022/01/24 03:34:07;;;;;;;;;;;;;;;2.76;100.00;103007.97;2569269;30;138228;-40
2022/01/24 03:36:35;;;;;;;;;;;;;;;2.76;100.00;103009.81;2568791;30;136664;-40
2022/01/24 03:39:03;;;;;;;;;;;;;;;2.77;100.00;103011.53;2566889;30;138905;-40
2022/01/24 03:41:31;;;;;;;;;;;;;;;2.78;100.00;103008.72;2568898;30;137069;-40
2022/01/24 03:44:03;;;;;;;;;;;;;;;2.83;100.00;103003.00;2566663;30;138910;-40
2022/01/24 03:46:47;;;;;;;;;;;;;;;2.84;100.00;103013.72;2568221;30;136966;-40
2022/01/24 03:52:01;;;;;;;;;;;;;;;2.72;100.00;103010.03;2568168;30;136880;-40
2022/01/24 03:54:29;;;;;;;;;;;;;;;2.72;100.00;103020.81;2568495;30;138381;-40
2022/01/24 03:56:57;;;;;;;;;;;;;;;2.69;100.00;103012.94;2568472;30;137151;-40
2022/01/24 03:59:24;;;;;;;;;;;;;;;2.69;100.00;103020.16;2566280;30;138086;-40
2022/01/24 04:01:52;;;;;;;;;;;;;;;2.68;100.00;103030.09;2568436;30;137160;-40
2022/01/24 04:04:20;;;;;;;;;;;;;;;2.68;100.00;103023.81;2568431;30;138050;-40
2022/01/24 04:06:48;;;;;;;;;;;;;;;2.72;100.00;103031.59;2568675;30;136703;-40
2022/01/24 04:09:16;;;;;;;;;;;;;;;2.71;100.00;103023.59;2567508;30;138250;-40
2022/01/24 04:11:44;;;;;;;;;;;;;;;2.73;100.00;103027.06;2567924;30;137310;-41
2022/01/24 04:14:39;;;;;;;;;;;;;;;2.72;100.00;103020.81;2567199;30;138680;-40
2022/01/24 04:22:18;;;;;;;;;;;;;;;2.69;100.00;103010.25;2566263;30;137067;-40
2022/01/24 04:24:47;;;;;;;;;;;;;;;2.70;100.00;103006.59;2565349;30;138208;-40
2022/01/24 04:27:15;;;;;;;;;;;;;;;2.71;100.00;103013.69;2568129;30;137209;-40
2022/01/24 04:29:43;;;;;;;;;;;;;;;2.69;100.00;103004.84;2567477;30;138213;-40
2022/01/24 04:32:11;;;;;;;;;;;;;;;2.78;100.00;103013.25;2566955;30;137445;-40
2022/01/24 04:34:38;;;;;;;;;;;;;;;2.73;100.00;103009.06;2568080;30;137974;-40
2022/01/24 04:37:06;;;;;;;;;;;;;;;2.71;100.00;103005.63;2568513;30;136980;-40
2022/01/24 04:39:34;;;;;;;;;;;;;;;2.76;100.00;103005.28;2568665;30;137368;-40
2022/01/24 04:42:09;;;;;;;;;;;;;;;2.77;100.00;103011.53;2566162;30;137297;-40
2022/01/24 04:47:37;;;;;;;;;;;;;;;2.72;100.00;103015.44;2569190;30;137127;-40
2022/01/24 04:52:59;;;;;;;;;;;;;;;2.73;100.00;103016.28;2567180;30;137846;-40
2022/01/24 04:55:27;;;;;;;;;;;;;;;2.77;100.00;103012.38;2569812;30;138338;-40
2022/01/24 04:57:55;;;;;;;;;;;;;;;2.77;100.00;103012.38;2568937;30;136861;-40
2022/01/24 05:00:23;;;;;;;;;;;;;;;2.82;100.00;103012.94;2567505;30;138213;-40
2022/01/24 05:02:51;;;;;;;;;;;;;;;2.83;100.00;103009.28;2569452;30;137295;-40
2022/01/24 05:05:21;;;;;;;;;;;;;;;2.80;100.00;103011.31;2568294;30;138245;-40
2022/01/24 05:07:50;;;;;;;;;;;;;;;2.92;100.00;103018.56;2568936;30;136923;-40
2022/01/24 05:10:34;;;;;;;;;;;;;;;2.90;100.00;103016.94;2568885;30;137610;-40
2022/01/24 05:24:14;;;;;;;;;;;;;;;2.88;100.00;103019.72;2568505;30;137106;-40
2022/01/24 05:26:42;;;;;;;;;;;;;;;2.95;100.00;103015.66;2567872;30;137555;-40
2022/01/24 05:29:10;;;;;;;;;;;;;;;2.98;100.00;103030.72;2568740;30;136915;-40
2022/01/24 05:31:38;;;;;;;;;;;;;;;3.03;100.00;103028.56;2570299;30;137334;-40
2022/01/24 05:34:05;;;;;;;;;;;;;;;3.05;100.00;103018.56;2566725;30;137106;-40
2022/01/24 05:36:33;;;;;;;;;;;;;;;3.01;100.00;103022.41;2568611;30;137459;-40
2022/01/24 05:39:02;;;;;;;;;;;;;;;2.97;100.00;103019.09;2568417;30;137354;-40
2022/01/24 05:41:29;;;;;;;;;;;;;;;3.01;100.00;103019.72;2568831;30;139192;-40
2022/01/24 05:43:57;;;;;;;;;;;;;;;2.96;100.00;103011.97;2567525;30;137031;-40
2022/01/24 05:46:25;;;;;;;;;;;;;;;3.05;100.00;103009.59;2568823;30;137451;-40
2022/01/24 05:48:54;;;;;;;;;;;;;;;3.02;100.00;103016.94;2568300;30;137057;-40
2022/01/24 05:51:23;;;;;;;;;;;;;;;2.98;100.00;103011.84;2568388;30;138037;-40
2022/01/24 05:53:51;;;;;;;;;;;;;;;2.97;100.00;103018.22;2568741;30;137041;-40
2022/01/24 05:56:19;;;;;;;;;;;;;;;2.94;100.00;103019.31;2567486;30;137597;-40
2022/01/24 05:58:46;;;;;;;;;;;;;;;2.98;100.00;103019.94;2569258;30;137111;-40
2022/01/24 06:01:15;;;;;;;;;;;;;;;2.94;100.00;103018.44;2567819;30;137838;-41
2022/01/24 06:03:43;;;;;;;;;;;;;;;2.93;100.00;103027.50;2569615;30;137095;-40
2022/01/24 06:06:10;;;;;;;;;;;;;;;2.91;100.00;103030.28;2568405;30;136950;-40
2022/01/24 06:08:38;;;;;;;;;;;;;;;2.92;100.00;103032.06;2568484;30;137121;-40
2022/01/24 06:11:06;;;;;;;;;;;;;;;2.90;100.00;103033.13;2567382;30;139032;-40
2022/01/24 06:13:34;;;;;;;;;;;;;;;2.85;100.00;103030.72;2568099;30;137483;-40
2022/01/24 06:16:02;;;;;;;;;;;;;;;2.96;100.00;103032.69;2568055;30;137856;-40
2022/01/24 06:18:30;;;;;;;;;;;;;;;2.96;100.00;103038.94;2565846;30;137305;-40
2022/01/24 06:20:58;;;;;;;;;;;;;;;2.94;100.00;103040.00;2568345;30;139736;-40
2022/01/24 06:23:26;;;;;;;;;;;;;;;2.95;100.00;103037.22;2568758;30;137126;-40
2022/01/24 06:25:53;;;;;;;;;;;;;;;2.92;100.00;103040.13;2568978;30;138538;-40
2022/01/24 06:28:21;;;;;;;;;;;;;;;2.90;100.00;103038.50;2568050;30;137155;-40
2022/01/24 06:30:49;;;;;;;;;;;;;;;2.93;100.00;103043.69;2568356;30;137449;-40
2022/01/24 06:33:17;;;;;;;;;;;;;;;3.10;100.00;103043.38;2569097;30;137295;-40
2022/01/24 06:35:45;;;;;;;;;;;;;;;3.04;100.00;103042.94;2569705;30;138362;-40
2022/01/24 06:38:13;;;;;;;;;;;;;;;2.99;100.00;103040.53;2568834;30;136967;-40
2022/01/24 06:40:41;;;;;;;;;;;;;;;2.95;100.00;103036.34;2569020;30;138320;-40
2022/01/24 06:43:08;;;;;;;;;;;;;;;2.91;100.00;103034.84;2568432;30;137318;-40
2022/01/24 06:45:36;;;;;;;;;;;;;;;2.94;100.00;103038.19;2568297;30;137508;-40
2022/01/24 06:48:04;;;;;;;;;;;;;;;2.92;100.00;103040.13;2566886;30;138147;-40
2022/01/24 06:50:32;;;;;;;;;;;;;;;2.94;100.00;103040.00;2567734;30;137258;-40
2022/01/24 06:53:00;;;;;;;;;;;;;;;2.87;100.00;103039.56;2569555;30;138515;-40
2022/01/24 06:55:28;;;;;;;;;;;;;;;2.82;100.00;103031.81;2569005;30;138210;-40
2022/01/24 06:57:56;;;;;;;;;;;;;;;2.86;100.00;103027.06;2566486;30;137586;-40
2022/01/24 07:00:26;;;;;;;;;;;;;;;2.80;100.00;103019.41;2567374;30;139163;-40
2022/01/24 07:02:54;;;;;;;;;;;;;;;2.78;100.00;103018.66;2568437;30;137114;-40
2022/01/24 07:05:25;;;;;;;;;;;;;;;2.73;100.00;103014.44;2568710;30;137903;-40
2022/01/24 07:07:56;;;;;;;;;;;;;;;2.72;100.00;103022.63;2580795;30;138198;-37
2022/01/24 07:10:24;;;;;;;;;;;;;;;2.85;100.00;103026.22;2565936;30;138633;-37
2022/01/24 07:12:57;;;;;;;;;;;;;;;2.80;100.00;103028.38;2568781;30;137104;-38
2022/01/24 07:15:32;;;;;;;;;;;;;;;2.87;100.00;103026.97;2569628;30;137414;-38
2022/01/24 07:20:35;;;;;;;;;;;;;;;2.93;100.00;103027.50;2565066;30;137938;-38
2022/01/24 07:23:04;;;;;;;;;;;;;;;2.83;100.00;103025.47;2567149;30;137014;-38
2022/01/24 07:25:31;;;;;;;;;;;;;;;2.81;100.00;103030.09;2566743;30;138542;-38
2022/01/24 07:27:59;;;;;;;;;;;;;;;2.91;100.00;103034.84;2569200;30;137095;-36
2022/01/24 07:30:27;;;;;;;;;;;;;;;2.89;100.00;103048.41;2563443;30;139477;-36
2022/01/24 07:32:55;;;;;;;;;;;;;;;3.01;100.00;103050.28;2568060;30;136989;-36
2022/01/24 07:35:23;;;;;;;;;;;;;;;2.91;100.00;103046.47;2567152;30;138502;-36
2022/01/24 07:37:50;;;;;;;;;;;;;;;2.93;100.00;103049.06;2568225;30;137040;-36
2022/01/24 07:40:18;;;;;;;;;;;;;;;2.92;100.00;103059.00;2568530;30;136857;-36
2022/01/24 07:45:20;;;;;;;;;;;;;;;3.07;99.17;103061.59;2568220;30;139037;-36
2022/01/24 07:47:48;;;;;;;;;;;;;;;3.07;99.55;103062.47;2565883;30;138051;-36
2022/01/24 07:50:21;;;;;;;;;;;;;;;3.08;99.83;103063.31;2568395;30;137733;-35
2022/01/24 07:52:49;;;;;;;;;;;;;;;3.07;100.00;103056.19;2566843;30;137228;-36
2022/01/24 07:55:17;;;;;;;;;;;;;;;3.10;100.00;103061.38;2567924;30;138248;-36
2022/01/24 07:57:45;;;;;;;;;;;;;;;3.06;100.00;103063.44;2568406;30;137791;-36
2022/01/24 08:00:13;;;;;;;;;;;;;;;3.10;100.00;103064.06;2567155;30;138527;-36
2022/01/24 08:02:41;;;;;;;;;;;;;;;3.09;100.00;103065.03;2566275;30;136669;-36
2022/01/24 08:05:10;;;;;;;;;;;;;;;3.16;100.00;103061.81;2567930;30;137936;-36
2022/01/24 08:07:38;;;;;;;;;;;;;;;3.20;100.00;103073.25;2568230;30;136970;-36
2022/01/24 08:10:06;;;;;;;;;;;;;;;3.24;100.00;103068.50;2567892;30;138401;-36
2022/01/24 08:12:35;;;;;;;;;;;;;;;3.27;100.00;103069.16;2567322;30;138169;-36
2022/01/24 08:15:03;;;;;;;;;;;;;;;3.33;100.00;103069.69;2567240;30;139239;-36
2022/01/24 08:17:31;;;;;;;;;;;;;;;3.32;100.00;103071.53;2567163;30;137609;-36
2022/01/24 08:19:59;;;;;;;;;;;;;;;3.30;100.00;103068.94;2568323;30;139013;-36
2022/01/24 08:22:27;;;;;;;;;;;;;;;3.38;100.00;103076.47;2567824;30;138865;-36
2022/01/24 08:24:55;;;;;;;;;;;;;;;3.41;100.00;103080.78;2570428;30;138225;-36
2022/01/24 08:27:25;;;;;;;;;;;;;;;3.42;99.73;103083.38;2569967;30;136765;-36
2022/01/24 08:29:52;;;;;;;;;;;;;;;3.40;99.41;103079.94;2568747;30;137678;-36
2022/01/24 08:32:21;;;;;;;;;;;;;;;3.43;100.00;103085.09;2569119;30;137274;-36
2022/01/24 08:34:49;;;;;;;;;;;;;;;3.40;99.92;103079.94;2568005;30;138376;-36
2022/01/24 08:37:29;;;;;;;;;;;;;;;3.44;99.33;103081.44;2568288;30;136821;-36
2022/01/24 08:40:00;;;;;;;;;;;;;;;3.56;99.05;103079.69;2568167;30;138466;-36
2022/01/24 08:42:43;;;;;;;;;;;;;;;3.51;99.28;103071.06;2567993;30;137976;-36
2022/01/24 08:47:59;;;;;;;;;;;;;;;3.67;99.09;103078.03;2569342;30;136732;-36
2022/01/24 08:50:27;;;;;;;;;;;;;;;3.69;97.83;103078.78;2568401;30;138210;-35
2022/01/24 08:52:59;;;;;;;;;;;;;;;3.65;97.53;103085.38;2568248;30;137151;-36
2022/01/24 08:55:27;;;;;;;;;;;;;;;3.68;96.88;103077.06;2566752;30;140054;-36
2022/01/24 08:57:56;;;;;;;;;;;;;;;3.69;96.70;103073.38;2568247;30;136784;-36
2022/01/24 09:00:24;;;;;;;;;;;;;;;3.73;96.98;103074.91;2569659;30;136989;-35
2022/01/24 09:02:52;;;;;;;;;;;;;;;3.72;98.09;103075.88;2570769;30;137595;-36
2022/01/24 09:05:24;;;;;;;;;;;;;;;3.86;97.90;103074.88;2569882;30;137308;-36
2022/01/24 09:07:52;;;;;;;;;;;;;;;3.79;98.49;103069.06;2566644;30;137877;-36
2022/01/24 09:10:20;;;;;;;;;;;;;;;3.82;97.29;103068.81;2568741;30;139220;-36
2022/01/24 09:12:47;;;;;;;;;;;;;;;3.88;96.52;103073.78;2569492;30;137004;-36
2022/01/24 09:15:15;;;;;;;;;;;;;;;3.92;95.02;103073.53;2567806;30;139254;-36
2022/01/24 09:17:43;;;;;;;;;;;;;;;3.96;95.83;103062.41;2567611;30;137468;-36
2022/01/24 09:20:11;;;;;;;;;;;;;;;3.95;95.66;103066.09;2566218;30;139242;-36
2022/01/24 09:22:43;;;;;;;;;;;;;;;4.01;96.95;103064.78;2568127;30;137112;-36
2022/01/24 09:25:11;;;;;;;;;;;;;;;4.08;97.34;103063.34;2566931;30;138457;-36
2022/01/24 09:27:39;;;;;;;;;;;;;;;4.09;97.21;103056.06;2569191;30;136694;-36
2022/01/24 09:30:08;;;;;;;;;;;;;;;4.17;98.09;103059.94;2568051;30;138364;-36
2022/01/24 09:32:35;;;;;;;;;;;;;;;4.24;96.16;103059.47;2568544;30;137700;-36
2022/01/24 09:35:04;;;;;;;;;;;;;;;4.28;94.32;103067.25;2570140;30;138378;-36
2022/01/24 09:37:32;;;;;;;;;;;;;;;4.30;93.79;103067.13;2569139;30;137036;-36
2022/01/24 09:40:00;;;;;;;;;;;;;;;4.37;96.32;103062.09;2567583;30;137120;-36
2022/01/24 09:42:28;;;;;;;;;;;;;;;4.38;94.48;103070.09;2568827;30;137151;-36
2022/01/24 09:44:56;;;;;;;;;;;;;;;4.41;94.85;103063.63;2568650;30;138966;-36
2022/01/24 09:47:24;;;;;;;;;;;;;;;4.41;93.70;103067.16;2569479;30;137133;-35
2022/01/24 09:49:52;;;;;;;;;;;;;;;4.44;93.81;103066.94;2567365;30;137472;-36
2022/01/24 09:52:20;;;;;;;;;;;;;;;4.45;94.15;103065.09;2566241;30;138079;-36
2022/01/24 09:54:48;;;;;;;;;;;;;;;4.44;93.62;103072.34;2568799;30;137400;-36
2022/01/24 09:57:15;;;;;;;;;;;;;;;4.42;93.83;103065.34;2569033;30;137148;-36
2022/01/24 09:59:43;;;;;;;;;;;;;;;4.49;94.60;103068.41;2567578;30;137958;-36
2022/01/24 10:02:11;;;;;;;;;;;;;;;4.58;93.65;103071.28;2566691;30;137841;-36
2022/01/24 10:04:39;;;;;;;;;;;;;;;4.64;92.04;103060.97;2569340;30;138480;-36
2022/01/24 10:07:12;;;;;;;;;;;;;;;4.66;91.23;103068.00;2569520;30;137109;-36
2022/01/24 10:09:39;;;;;;;;;;;;;;;4.67;92.06;103068.88;2569101;30;137092;-36
2022/01/24 10:17:38;;;;;;;;;;;;;;;5.08;88.10;103072.03;2568232;30;137005;-36
2022/01/24 10:20:21;;;;;;;;;;;;;;;5.09;87.78;103068.34;2568417;30;138362;-36
2022/01/24 10:23:07;;;;;;;;;;;;;;;5.12;87.21;103065.41;2567481;30;137060;-35
2022/01/24 10:25:48;;;;;;;;;;;;;;;5.22;88.33;103068.25;2567957;30;138389;-36
2022/01/24 10:28:38;;;;;;;;;;;;;;;5.32;87.98;103067.38;2568862;30;137823;-36
2022/01/24 10:31:09;;;;;;;;;;;;;;;5.33;86.19;103068.22;2569067;30;138465;-36
2022/01/24 10:33:51;;;;;;;;;;;;;;;5.37;86.67;103066.16;2566534;30;137616;-36
2022/01/24 10:36:35;;;;;;;;;;;;;;;5.35;86.72;103050.03;2569230;30;137993;-36
2022/01/24 10:39:07;;;;;;;;;;;;;;;5.28;87.26;103055.06;2567669;30;137187;-36
2022/01/24 10:44:31;;;;;;;;;;;;;;;5.38;88.39;103062.47;2568469;30;136817;-36
2022/01/24 10:47:13;;;;;;;;;;;;;;;5.39;86.86;103064.19;2569659;30;137494;-36
2022/01/24 10:49:41;;;;;;;;;;;;;;;5.44;87.09;103054.72;2569018;30;137539;-36
2022/01/24 10:52:10;;;;;;;;;;;;;;;5.46;86.51;103050.03;2568705;30;138403;-36
2022/01/24 10:54:38;;;;;;;;;;;;;;;5.54;87.23;103052.09;2568281;30;137105;-36
2022/01/24 10:57:06;;;;;;;;;;;;;;;5.58;87.05;103044.59;2567981;30;139145;-36
2022/01/24 10:59:35;;;;;;;;;;;;;;;5.60;86.18;103051.63;2565676;30;138416;-36
2022/01/24 11:02:04;;;;;;;;;;;;;;;5.63;86.71;103042.38;2568092;30;136741;-36
2022/01/24 11:04:33;;;;;;;;;;;;;;;5.55;85.59;103042.13;2568044;30;137101;-36
2022/01/24 11:07:03;;;;;;;;;;;;;;;5.52;84.77;103043.25;2568413;30;137214;-36
2022/01/24 11:09:31;;;;;;;;;;;;;;;5.50;85.52;103041.66;2567755;30;136828;-36
2022/01/24 11:12:01;;;;;;;;;;;;;;;5.51;84.73;103041.50;2569443;30;136745;-36
2022/01/24 11:14:29;;;;;;;;;;;;;;;5.53;86.43;103036.84;2566857;30;137611;-36
2022/01/24 11:16:59;;;;;;;;;;;;;;;5.57;85.36;103037.47;2568311;30;138848;-36
2022/01/24 11:21:57;;;;;;;;;;;;;;;5.68;85.99;103039.28;2567819;30;138409;-36
2022/01/24 11:25:00;;;;;;;;;;;;;;;5.79;85.79;103035.72;2568596;30;137030;-36
2022/01/24 11:27:34;;;;;;;;;;;;;;;5.89;86.10;103033.94;2568014;30;137697;-36
2022/01/24 11:30:10;;;;;;;;;;;;;;;5.88;85.33;103030.38;2568522;30;137767;-36
2022/01/24 11:32:49;;;;;;;;;;;;;;;5.79;84.01;103023.00;2566935;30;138526;-36
2022/01/24 11:35:53;;;;;;;;;;;;;;;5.84;82.87;103015.38;2567079;30;137210;-36
2022/01/24 11:38:26;;;;;;;;;;;;;;;5.84;83.31;103026.22;2567359;30;138424;-36
2022/01/24 11:41:01;;;;;;;;;;;;;;;5.80;84.14;103019.31;2568085;30;137181;-36
2022/01/24 11:43:44;;;;;;;;;;;;;;;5.69;83.76;103016.63;2569179;30;138280;-36
2022/01/24 11:46:34;;;;;;;;;;;;;;;5.58;83.80;103003.97;2568744;30;137822;-36
2022/01/24 11:49:09;;;;;;;;;;;;;;;5.47;84.73;103016.56;2567390;30;137143;-36
2022/01/24 11:51:38;;;;;;;;;;;;;;;5.45;85.40;103014.94;2566950;30;137525;-36
2022/01/24 11:54:31;;;;;;;;;;;;;;;5.41;84.63;103018.88;2569428;30;137130;-36
2022/01/24 11:57:18;;;;;;;;;;;;;;;5.29;85.57;103007.22;2568865;30;137161;-35
2022/01/24 11:59:46;;;;;;;;;;;;;;;5.24;86.47;103018.41;2567368;30;138418;-36
2022/01/24 12:02:18;;;;;;;;;;;;;;;5.23;85.45;103016.69;2568282;30;136693;-36
2022/01/24 12:05:00;;;;;;;;;;;;;;;5.18;85.83;103011.66;2567428;30;138518;-36
2022/01/24 12:07:31;;;;;;;;;;;;;;;5.06;87.65;103004.50;2568756;30;137347;-36
2022/01/24 12:10:19;;;;;;;;;;;;;;;5.08;87.81;103002.53;2569279;30;137110;-36
2022/01/24 12:12:49;;;;;;;;;;;;;;;5.07;86.96;103000.81;2567617;30;137320;-36
2022/01/24 12:15:39;;;;;;;;;;;;;;;5.23;87.08;103005.84;2568170;30;138117;-36
2022/01/24 12:18:06;;;;;;;;;;;;;;;5.30;87.62;103000.81;2569121;30;137193;-36
2022/01/24 12:20:37;;;;;;;;;;;;;;;5.33;87.06;103006.84;2568010;30;138358;-36
2022/01/24 12:23:36;;;;;;;;;;;;;;;5.30;87.21;103000.81;2567466;30;137072;-36
2022/01/24 12:26:16;;;;;;;;;;;;;;;5.25;85.69;103003.88;2565408;30;139336;-36
2022/01/24 12:28:46;;;;;;;;;;;;;;;5.30;87.44;102993.56;2568202;30;137246;-36
2022/01/24 12:31:20;;;;;;;;;;;;;;;5.40;86.41;102999.06;2567104;30;138422;-36
2022/01/24 12:34:09;;;;;;;;;;;;;;;5.57;87.46;102999.53;2567885;30;136910;-36
2022/01/24 12:36:36;;;;;;;;;;;;;;;5.66;85.68;103000.63;2567429;30;137535;-36
2022/01/24 12:39:10;;;;;;;;;;;;;;;5.79;85.73;102995.06;2569140;30;136809;-36
2022/01/24 12:41:42;;;;;;;;;;;;;;;5.94;84.28;102996.47;2568990;30;137168;-36
2022/01/24 12:46:18;;;;;;;;;;;;;;;6.15;84.54;102987.56;2569317;30;137075;-36
2022/01/24 12:47:01;;;;;;;;;;;;;;;6.16;83.75;102982.03;2567707;30;138872;-36
2022/01/24 12:49:29;;;;;;;;;;;;;;;6.12;82.89;102983.28;2567927;30;136717;-36
2022/01/24 12:52:02;;;;;;;;;;;;;;;6.16;84.48;102986.56;2566582;30;138928;-36
2022/01/24 12:54:31;;;;;;;;;;;;;;;6.26;86.18;102990.25;2569128;30;137943;-36
2022/01/24 12:57:05;;;;;;;;;;;;;;;6.27;83.21;102991.97;2566852;30;138386;-36
2022/01/24 12:59:34;;;;;;;;;;;;;;;6.23;84.35;103000.47;2566800;30;137238;-36
2022/01/24 13:02:04;;;;;;;;;;;;;;;6.22;84.70;102996.06;2568109;30;138253;-36
2022/01/24 13:04:37;;;;;;;;;;;;;;;6.26;84.11;102989.38;2568201;30;136997;-36
2022/01/24 13:10:38;;;;;;;;;;;;;;;6.27;84.11;102977.53;2568333;30;136751;-40
2022/01/24 13:13:10;;;;;;;;;;;;;;;6.27;84.00;102975.69;2569016;30;137838;-40
2022/01/24 13:21:17;;;;;;;;;;;;;;;6.12;84.30;102985.13;2568904;30;138783;-41
2022/01/24 13:23:50;;;;;;;;;;;;;;;6.03;83.17;102984.03;2568457;30;137198;-41
2022/01/24 13:26:18;;;;;;;;;;;;;;;5.98;84.44;102978.13;2569643;30;139123;-41
2022/01/24 13:28:46;;;;;;;;;;;;;;;6.03;85.61;102982.22;2568689;30;136815;-40
2022/01/24 13:31:14;;;;;;;;;;;;;;;6.03;83.79;102974.09;2568408;30;137650;-40
2022/01/24 13:33:45;;;;;;;;;;;;;;;6.00;85.27;102973.44;2568300;30;136704;-40
2022/01/24 13:36:16;;;;;;;;;;;;;;;5.88;84.47;102976.19;2568724;30;137033;-40
2022/01/24 13:38:48;;;;;;;;;;;;;;;5.83;85.50;102981.13;2567859;30;137665;-41
2022/01/24 13:41:17;;;;;;;;;;;;;;;5.83;85.01;102985.69;2568424;30;139129;-41
2022/01/24 13:43:44;;;;;;;;;;;;;;;5.80;85.73;102989.50;2565118;30;137260;-40
2022/01/24 13:46:17;;;;;;;;;;;;;;;5.80;86.52;102981.38;2568621;30;138411;-40
2022/01/24 13:48:46;;;;;;;;;;;;;;;5.76;86.68;102990.75;2568666;30;137169;-40
2022/01/24 13:51:15;;;;;;;;;;;;;;;5.73;87.47;102985.59;2568372;30;138367;-41
2022/01/24 13:54:03;;;;;;;;;;;;;;;5.74;85.74;102981.91;2569194;30;138127;-40
2022/01/24 13:56:51;;;;;;;;;;;;;;;5.73;85.57;102985.59;2569546;30;139275;-41
2022/01/24 13:59:19;;;;;;;;;;;;;;;5.66;85.36;102985.25;2568412;30;136900;-41
2022/01/24 14:01:56;;;;;;;;;;;;;;;5.64;86.67;102975.53;2569088;30;138975;-41
2022/01/24 14:04:25;;;;;;;;;;;;;;;5.62;87.31;102975.66;2567692;30;137430;-41
2022/01/24 14:06:57;;;;;;;;;;;;;;;5.64;87.46;102973.66;2567892;30;137766;-41
2022/01/24 14:09:35;;;;;;;;;;;;;;;5.59;86.66;102975.91;2568948;30;137019;-40
2022/01/24 14:12:04;;;;;;;;;;;;;;;5.55;86.44;102969.88;2566886;30;137120;-41
2022/01/24 14:15:45;;;;;;;;;;;;;;;5.53;87.71;102977.25;2569118;30;137183;-40
2022/01/24 14:20:03;;;;;;;;;;;;;;;5.48;88.68;102965.94;2568758;30;137144;-40
2022/01/24 14:22:46;;;;;;;;;;;;;;;5.46;87.99;102960.69;2568018;30;138276;-41
2022/01/24 14:25:23;;;;;;;;;;;;;;;5.35;87.32;102965.25;2568990;30;137235;-40
2022/01/24 14:27:52;;;;;;;;;;;;;;;5.29;88.87;102953.06;2567020;30;138940;-41
2022/01/24 14:30:40;;;;;;;;;;;;;;;5.21;87.29;102952.84;2567220;30;137029;-40
2022/01/24 14:33:13;;;;;;;;;;;;;;;5.22;88.61;102952.69;2568390;30;137501;-41
2022/01/24 14:35:49;;;;;;;;;;;;;;;5.20;87.79;102943.84;2568861;30;137032;-40
2022/01/24 14:38:28;;;;;;;;;;;;;;;5.12;87.55;102949.88;2569090;30;138225;-41
2022/01/24 14:40:59;;;;;;;;;;;;;;;5.01;88.15;102953.44;2569046;30;137285;-41
2022/01/24 14:46:15;;;;;;;;;;;;;;;4.96;88.70;102961.06;2566694;30;136802;-41